sensor_id;sensor_type;location;lat;lon;timestamp;pressure;altitude;pressure_sealevel;temperature;humidity
19086;BME280;9675;51.538;6.728;2023-05-29T00:00:43;101812.56;;;20.12;48.90
19086;BME280;9675;51.538;6.728;2023-05-29T00:03:10;101811.50;;;20.04;48.87
19086;BME280;9675;51.538;6.728;2023-05-29T00:05:39;101816.59;;;19.99;48.99
19086;BME280;9675;51.538;6.728;2023-05-29T00:08:07;101813.00;;;19.95;48.99
19086;BME280;9675;51.538;6.728;2023-05-29T00:10:34;101813.75;;;19.91;49.20
19086;BME280;9675;51.538;6.728;2023-05-29T00:13:03;101809.34;;;19.89;49.16
19086;BME280;9675;51.538;6.728;2023-05-29T00:15:30;101807.47;;;19.85;49.19
19086;BME280;9675;51.538;6.728;2023-05-29T00:17:57;101815.19;;;19.80;49.42
19086;BME280;9675;51.538;6.728;2023-05-29T00:20:24;101809.06;;;19.78;50.18
19086;BME280;9675;51.538;6.728;2023-05-29T00:22:53;101807.19;;;19.74;49.76
19086;BME280;9675;51.538;6.728;2023-05-29T00:25:20;101821.84;;;19.69;50.46
19086;BME280;9675;51.538;6.728;2023-05-29T00:27:47;101822.56;;;19.64;50.16
19086;BME280;9675;51.538;6.728;2023-05-29T00:30:14;101834.59;;;19.59;50.56
19086;BME280;9675;51.538;6.728;2023-05-29T00:32:41;101842.31;;;19.54;50.55
19086;BME280;9675;51.538;6.728;2023-05-29T00:35:09;101834.34;;;19.49;51.24
19086;BME280;9675;51.538;6.728;2023-05-29T00:37:36;101841.16;;;19.44;51.06
19086;BME280;9675;51.538;6.728;2023-05-29T00:40:07;101833.09;;;19.37;51.11
19086;BME280;9675;51.538;6.728;2023-05-29T00:42:34;101849.53;;;19.34;51.49
19086;BME280;9675;51.538;6.728;2023-05-29T00:45:02;101855.47;;;19.29;51.25
19086;BME280;9675;51.538;6.728;2023-05-29T00:47:30;101858.91;;;19.28;51.54
19086;BME280;9675;51.538;6.728;2023-05-29T00:49:57;101860.56;;;19.24;51.92
19086;BME280;9675;51.538;6.728;2023-05-29T00:52:26;101862.88;;;19.15;52.04
19086;BME280;9675;51.538;6.728;2023-05-29T00:54:55;101865.31;;;19.09;52.29
19086;BME280;9675;51.538;6.728;2023-05-29T00:57:24;101871.34;;;19.06;52.33
19086;BME280;9675;51.538;6.728;2023-05-29T00:59:53;101872.06;;;19.02;52.34
19086;BME280;9675;51.538;6.728;2023-05-29T01:02:20;101878.13;;;19.01;52.32
19086;BME280;9675;51.538;6.728;2023-05-29T01:04:48;101873.53;;;18.94;52.54
19086;BME280;9675;51.538;6.728;2023-05-29T01:07:15;101882.00;;;18.87;53.09
19086;BME280;9675;51.538;6.728;2023-05-29T01:09:42;101879.25;;;18.83;53.14
19086;BME280;9675;51.538;6.728;2023-05-29T01:12:27;101876.50;;;18.78;53.01
19086;BME280;9675;51.538;6.728;2023-05-29T01:15:14;101870.31;;;18.75;53.25
19086;BME280;9675;51.538;6.728;2023-05-29T01:18:07;101872.69;;;18.68;53.30
19086;BME280;9675;51.538;6.728;2023-05-29T01:20:41;101900.31;;;18.62;53.17
19086;BME280;9675;51.538;6.728;2023-05-29T01:24:02;101879.84;;;18.49;52.83
19086;BME280;9675;51.538;6.728;2023-05-29T01:26:53;101878.78;;;18.44;52.60
19086;BME280;9675;51.538;6.728;2023-05-29T01:29:26;101886.47;;;18.39;52.48
19086;BME280;9675;51.538;6.728;2023-05-29T01:31:55;101881.94;;;18.35;53.07
19086;BME280;9675;51.538;6.728;2023-05-29T01:34:27;101887.91;;;18.31;52.95
19086;BME280;9675;51.538;6.728;2023-05-29T01:36:54;101890.44;;;18.30;52.27
19086;BME280;9675;51.538;6.728;2023-05-29T01:39:22;101892.00;;;18.24;53.16
19086;BME280;9675;51.538;6.728;2023-05-29T01:41:52;101897.94;;;18.20;52.76
19086;BME280;9675;51.538;6.728;2023-05-29T01:44:21;101889.88;;;18.13;52.80
19086;BME280;9675;51.538;6.728;2023-05-29T01:46:50;101888.03;;;18.10;52.82
19086;BME280;9675;51.538;6.728;2023-05-29T01:49:18;101890.53;;;18.07;52.42
19086;BME280;9675;51.538;6.728;2023-05-29T01:51:45;101888.63;;;18.03;52.45
19086;BME280;9675;51.538;6.728;2023-05-29T01:54:13;101890.09;;;17.95;52.95
19086;BME280;9675;51.538;6.728;2023-05-29T01:56:42;101899.53;;;17.92;52.98
19086;BME280;9675;51.538;6.728;2023-05-29T01:59:13;101895.91;;;17.88;52.84
19086;BME280;9675;51.538;6.728;2023-05-29T02:01:41;101894.00;;;17.84;52.63
19086;BME280;9675;51.538;6.728;2023-05-29T02:04:08;101887.81;;;17.80;52.86
19086;BME280;9675;51.538;6.728;2023-05-29T02:06:35;101895.47;;;17.76;52.34
19086;BME280;9675;51.538;6.728;2023-05-29T02:09:02;101895.34;;;17.73;52.17
19086;BME280;9675;51.538;6.728;2023-05-29T02:11:31;101896.06;;;17.69;52.76
19086;BME280;9675;51.538;6.728;2023-05-29T02:13:58;101899.31;;;17.63;52.84
19086;BME280;9675;51.538;6.728;2023-05-29T02:16:29;101894.72;;;17.58;52.64
19086;BME280;9675;51.538;6.728;2023-05-29T02:18:59;101897.28;;;17.56;52.71
19086;BME280;9675;51.538;6.728;2023-05-29T02:21:27;101900.56;;;17.51;52.84
19086;BME280;9675;51.538;6.728;2023-05-29T02:23:54;101900.25;;;17.43;53.02
19086;BME280;9675;51.538;6.728;2023-05-29T02:26:21;101896.63;;;17.39;53.00
19086;BME280;9675;51.538;6.728;2023-05-29T02:28:48;101898.19;;;17.34;52.93
19086;BME280;9675;51.538;6.728;2023-05-29T02:31:15;101892.78;;;17.30;53.22
19086;BME280;9675;51.538;6.728;2023-05-29T02:33:44;101893.69;;;17.30;53.00
19086;BME280;9675;51.538;6.728;2023-05-29T02:36:11;101906.50;;;17.26;52.89
19086;BME280;9675;51.538;6.728;2023-05-29T02:38:38;101898.41;;;17.18;52.88
19086;BME280;9675;51.538;6.728;2023-05-29T02:41:05;101900.03;;;17.16;53.44
19086;BME280;9675;51.538;6.728;2023-05-29T02:43:32;101901.56;;;17.11;53.17
19086;BME280;9675;51.538;6.728;2023-05-29T02:45:59;101904.97;;;17.09;53.43
19086;BME280;9675;51.538;6.728;2023-05-29T02:48:26;101910.84;;;17.05;53.38
19086;BME280;9675;51.538;6.728;2023-05-29T02:50:56;101914.22;;;17.02;53.85
19086;BME280;9675;51.538;6.728;2023-05-29T02:53:23;101918.47;;;17.00;53.80
19086;BME280;9675;51.538;6.728;2023-05-29T02:55:51;101935.59;;;16.95;53.76
19086;BME280;9675;51.538;6.728;2023-05-29T02:58:18;101926.88;;;16.93;53.94
19086;BME280;9675;51.538;6.728;2023-05-29T03:00:47;101926.63;;;16.87;53.68
19086;BME280;9675;51.538;6.728;2023-05-29T03:03:14;101923.03;;;16.85;54.10
19086;BME280;9675;51.538;6.728;2023-05-29T03:05:41;101928.06;;;16.80;54.56
19086;BME280;9675;51.538;6.728;2023-05-29T03:08:09;101925.34;;;16.77;54.00
19086;BME280;9675;51.538;6.728;2023-05-29T03:10:36;101930.47;;;16.76;54.06
19086;BME280;9675;51.538;6.728;2023-05-29T03:13:03;101929.41;;;16.71;54.19
19086;BME280;9675;51.538;6.728;2023-05-29T03:15:30;101929.28;;;16.68;54.41
19086;BME280;9675;51.538;6.728;2023-05-29T03:17:57;101929.09;;;16.63;54.13
19086;BME280;9675;51.538;6.728;2023-05-29T03:20:24;101931.53;;;16.60;54.42
19086;BME280;9675;51.538;6.728;2023-05-29T03:22:52;101933.91;;;16.55;54.64
19086;BME280;9675;51.538;6.728;2023-05-29T03:25:21;101929.47;;;16.53;54.61
19086;BME280;9675;51.538;6.728;2023-05-29T03:27:48;101921.63;;;16.51;54.65
19086;BME280;9675;51.538;6.728;2023-05-29T03:30:16;101923.19;;;16.48;54.50
19086;BME280;9675;51.538;6.728;2023-05-29T03:32:43;101922.25;;;16.46;54.83
19086;BME280;9675;51.538;6.728;2023-05-29T03:35:10;101925.53;;;16.42;55.10
19086;BME280;9675;51.538;6.728;2023-05-29T03:37:37;101926.28;;;16.39;54.89
19086;BME280;9675;51.538;6.728;2023-05-29T03:40:05;101928.69;;;16.35;55.19
19086;BME280;9675;51.538;6.728;2023-05-29T03:42:34;101922.47;;;16.31;55.39
19086;BME280;9675;51.538;6.728;2023-05-29T03:45:01;101930.06;;;16.27;55.51
19086;BME280;9675;51.538;6.728;2023-05-29T03:47:28;101944.63;;;16.23;55.52
19086;BME280;9675;51.538;6.728;2023-05-29T03:49:55;101941.81;;;16.19;56.30
19086;BME280;9675;51.538;6.728;2023-05-29T03:52:22;101938.94;;;16.12;55.73
19086;BME280;9675;51.538;6.728;2023-05-29T03:54:49;101937.94;;;16.09;56.19
19086;BME280;9675;51.538;6.728;2023-05-29T03:57:16;101941.22;;;16.05;56.31
19086;BME280;9675;51.538;6.728;2023-05-29T03:59:45;101947.97;;;16.01;56.52
19086;BME280;9675;51.538;6.728;2023-05-29T04:02:12;101947.97;;;16.01;56.38
19086;BME280;9675;51.538;6.728;2023-05-29T04:04:39;101946.94;;;15.98;56.50
19086;BME280;9675;51.538;6.728;2023-05-29T04:07:06;101949.34;;;15.93;57.15
19086;BME280;9675;51.538;6.728;2023-05-29T04:09:33;101944.75;;;15.88;56.70
19086;BME280;9675;51.538;6.728;2023-05-29T04:12:01;101947.44;;;15.89;56.63
19086;BME280;9675;51.538;6.728;2023-05-29T04:14:29;101949.94;;;15.88;56.91
19086;BME280;9675;51.538;6.728;2023-05-29T04:16:57;101948.13;;;15.85;56.73
19086;BME280;9675;51.538;6.728;2023-05-29T04:19:24;101954.13;;;15.84;56.87
19086;BME280;9675;51.538;6.728;2023-05-29T04:21:51;101953.06;;;15.81;56.82
19086;BME280;9675;51.538;6.728;2023-05-29T04:24:18;101955.63;;;15.79;57.39
19086;BME280;9675;51.538;6.728;2023-05-29T04:26:45;101957.13;;;15.74;57.43
19086;BME280;9675;51.538;6.728;2023-05-29T04:29:12;101961.25;;;15.70;57.76
19086;BME280;9675;51.538;6.728;2023-05-29T04:31:40;101961.13;;;15.67;57.99
19086;BME280;9675;51.538;6.728;2023-05-29T04:34:08;101967.13;;;15.66;57.99
19086;BME280;9675;51.538;6.728;2023-05-29T04:36:36;101962.50;;;15.59;57.94
19086;BME280;9675;51.538;6.728;2023-05-29T04:39:04;101968.50;;;15.58;58.14
19086;BME280;9675;51.538;6.728;2023-05-29T04:41:32;101972.72;;;15.56;58.41
19086;BME280;9675;51.538;6.728;2023-05-29T04:43:59;101972.59;;;15.53;58.13
19086;BME280;9675;51.538;6.728;2023-05-29T04:46:26;101970.69;;;15.51;58.71
19086;BME280;9675;51.538;6.728;2023-05-29T04:48:53;101980.13;;;15.49;58.80
19086;BME280;9675;51.538;6.728;2023-05-29T04:51:22;101983.38;;;15.45;58.73
19086;BME280;9675;51.538;6.728;2023-05-29T04:53:51;101985.91;;;15.43;58.91
19086;BME280;9675;51.538;6.728;2023-05-29T04:56:18;101990.13;;;15.41;59.27
19086;BME280;9675;51.538;6.728;2023-05-29T04:58:46;101993.69;;;15.43;59.50
19086;BME280;9675;51.538;6.728;2023-05-29T05:01:13;101993.41;;;15.37;60.05
19086;BME280;9675;51.538;6.728;2023-05-29T05:03:41;101987.19;;;15.34;60.24
19086;BME280;9675;51.538;6.728;2023-05-29T05:06:09;101993.91;;;15.30;60.58
19086;BME280;9675;51.538;6.728;2023-05-29T05:08:38;101990.28;;;15.26;61.10
19086;BME280;9675;51.538;6.728;2023-05-29T05:11:05;101991.16;;;15.27;60.71
19086;BME280;9675;51.538;6.728;2023-05-29T05:13:32;101991.09;;;15.25;60.37
19086;BME280;9675;51.538;6.728;2023-05-29T05:15:59;101988.41;;;15.24;61.65
19086;BME280;9675;51.538;6.728;2023-05-29T05:18:26;101990.09;;;15.23;61.54
19086;BME280;9675;51.538;6.728;2023-05-29T05:20:54;101983.97;;;15.21;61.80
19086;BME280;9675;51.538;6.728;2023-05-29T05:23:21;101988.28;;;15.21;62.87
19086;BME280;9675;51.538;6.728;2023-05-29T05:25:49;101984.56;;;15.16;62.57
19086;BME280;9675;51.538;6.728;2023-05-29T05:28:16;101989.75;;;15.16;62.59
19086;BME280;9675;51.538;6.728;2023-05-29T05:30:43;101989.75;;;15.16;63.02
19086;BME280;9675;51.538;6.728;2023-05-29T05:33:10;101990.47;;;15.13;63.87
19086;BME280;9675;51.538;6.728;2023-05-29T05:35:40;101997.31;;;15.11;64.22
19086;BME280;9675;51.538;6.728;2023-05-29T05:38:07;101988.53;;;15.09;64.37
19086;BME280;9675;51.538;6.728;2023-05-29T05:40:34;101988.53;;;15.09;64.67
19086;BME280;9675;51.538;6.728;2023-05-29T05:43:03;101989.34;;;15.08;63.94
19086;BME280;9675;51.538;6.728;2023-05-29T05:45:31;101978.94;;;15.07;65.49
19086;BME280;9675;51.538;6.728;2023-05-29T05:47:58;101978.94;;;15.07;65.47
19086;BME280;9675;51.538;6.728;2023-05-29T05:50:25;101988.31;;;15.05;65.05
19086;BME280;9675;51.538;6.728;2023-05-29T05:52:52;101987.59;;;15.07;65.06
19086;BME280;9675;51.538;6.728;2023-05-29T05:55:19;101997.88;;;15.06;65.51
19086;BME280;9675;51.538;6.728;2023-05-29T05:57:46;101999.72;;;15.08;65.71
19086;BME280;9675;51.538;6.728;2023-05-29T06:00:16;102015.38;;;15.10;65.62
19086;BME280;9675;51.538;6.728;2023-05-29T06:02:43;101994.63;;;15.10;66.08
19086;BME280;9675;51.538;6.728;2023-05-29T06:05:11;101998.84;;;15.08;66.26
19086;BME280;9675;51.538;6.728;2023-05-29T06:07:38;101999.81;;;15.10;65.57
19086;BME280;9675;51.538;6.728;2023-05-29T06:10:06;102008.41;;;15.09;65.78
19086;BME280;9675;51.538;6.728;2023-05-29T06:12:34;101998.03;;;15.09;65.51
19086;BME280;9675;51.538;6.728;2023-05-29T06:15:01;102006.94;;;15.14;65.71
19086;BME280;9675;51.538;6.728;2023-05-29T06:17:31;101996.50;;;15.12;65.15
19086;BME280;9675;51.538;6.728;2023-05-29T06:19:58;102006.00;;;15.12;66.64
19086;BME280;9675;51.538;6.728;2023-05-29T06:22:26;102010.38;;;15.13;65.36
19086;BME280;9675;51.538;6.728;2023-05-29T06:24:53;102015.69;;;15.16;66.00
19086;BME280;9675;51.538;6.728;2023-05-29T06:27:20;102005.44;;;15.19;65.89
19086;BME280;9675;51.538;6.728;2023-05-29T06:29:49;102004.66;;;15.20;65.49
19086;BME280;9675;51.538;6.728;2023-05-29T06:32:16;102010.06;;;15.24;65.55
19086;BME280;9675;51.538;6.728;2023-05-29T06:34:44;102010.22;;;15.27;66.10
19086;BME280;9675;51.538;6.728;2023-05-29T06:37:11;102006.78;;;15.28;64.51
19086;BME280;9675;51.538;6.728;2023-05-29T06:39:38;102007.03;;;15.33;64.34
19086;BME280;9675;51.538;6.728;2023-05-29T06:42:07;102003.69;;;15.36;64.90
19086;BME280;9675;51.538;6.728;2023-05-29T06:44:35;102002.78;;;15.35;64.64
19086;BME280;9675;51.538;6.728;2023-05-29T06:47:04;102007.31;;;15.39;64.28
19086;BME280;9675;51.538;6.728;2023-05-29T06:49:31;101999.53;;;15.39;64.33
19086;BME280;9675;51.538;6.728;2023-05-29T06:51:59;101996.22;;;15.42;64.32
19086;BME280;9675;51.538;6.728;2023-05-29T06:54:26;102002.50;;;15.47;64.08
19086;BME280;9675;51.538;6.728;2023-05-29T06:56:53;102000.88;;;15.49;63.93
19086;BME280;9675;51.538;6.728;2023-05-29T06:59:21;102004.22;;;15.46;63.69
19086;BME280;9675;51.538;6.728;2023-05-29T07:01:48;102012.91;;;15.47;64.78
19086;BME280;9675;51.538;6.728;2023-05-29T07:04:15;102021.81;;;15.52;64.41
19086;BME280;9675;51.538;6.728;2023-05-29T07:06:42;102015.16;;;15.57;63.58
19086;BME280;9675;51.538;6.728;2023-05-29T07:09:10;102013.53;;;15.59;63.30
19086;BME280;9675;51.538;6.728;2023-05-29T07:11:38;102012.94;;;15.64;63.39
19086;BME280;9675;51.538;6.728;2023-05-29T07:14:05;102010.38;;;15.66;63.37
19086;BME280;9675;51.538;6.728;2023-05-29T07:16:32;102016.78;;;15.72;62.98
19086;BME280;9675;51.538;6.728;2023-05-29T07:18:59;102021.44;;;15.80;62.97
19086;BME280;9675;51.538;6.728;2023-05-29T07:21:29;102022.38;;;15.82;62.59
19086;BME280;9675;51.538;6.728;2023-05-29T07:23:57;102017.28;;;15.83;62.53
19086;BME280;9675;51.538;6.728;2023-05-29T07:26:25;102017.56;;;15.89;62.44
19086;BME280;9675;51.538;6.728;2023-05-29T07:28:52;102031.59;;;15.93;62.56
19086;BME280;9675;51.538;6.728;2023-05-29T07:31:19;102028.25;;;15.95;62.33
19086;BME280;9675;51.538;6.728;2023-05-29T07:33:46;102024.16;;;16.00;62.14
19086;BME280;9675;51.538;6.728;2023-05-29T07:36:16;102035.56;;;16.04;62.24
19086;BME280;9675;51.538;6.728;2023-05-29T07:38:43;102027.91;;;16.07;62.11
19086;BME280;9675;51.538;6.728;2023-05-29T07:41:10;102023.75;;;16.10;61.47
19086;BME280;9675;51.538;6.728;2023-05-29T07:43:39;102027.31;;;16.12;61.25
19086;BME280;9675;51.538;6.728;2023-05-29T07:46:06;102027.50;;;16.17;61.24
19086;BME280;9675;51.538;6.728;2023-05-29T07:48:33;102026.00;;;16.22;60.90
19086;BME280;9675;51.538;6.728;2023-05-29T07:51:00;102028.09;;;16.29;60.65
19086;BME280;9675;51.538;6.728;2023-05-29T07:53:27;102033.69;;;16.38;60.55
19086;BME280;9675;51.538;6.728;2023-05-29T07:55:54;102044.56;;;16.49;60.29
19086;BME280;9675;51.538;6.728;2023-05-29T07:58:23;102051.75;;;16.54;60.08
19086;BME280;9675;51.538;6.728;2023-05-29T08:00:51;102036.31;;;16.57;60.02
19086;BME280;9675;51.538;6.728;2023-05-29T08:03:18;102040.03;;;16.63;59.65
19086;BME280;9675;51.538;6.728;2023-05-29T08:05:46;102034.94;;;16.66;59.16
19086;BME280;9675;51.538;6.728;2023-05-29T08:08:14;102033.72;;;16.77;58.94
19086;BME280;9675;51.538;6.728;2023-05-29T08:10:41;102037.53;;;16.85;58.75
19086;BME280;9675;51.538;6.728;2023-05-29T08:13:08;102041.38;;;16.93;58.40
19086;BME280;9675;51.538;6.728;2023-05-29T08:15:35;102041.75;;;17.02;58.14
19086;BME280;9675;51.538;6.728;2023-05-29T08:18:05;102046.31;;;17.08;57.73
19086;BME280;9675;51.538;6.728;2023-05-29T08:20:32;102044.69;;;17.10;57.83
19086;BME280;9675;51.538;6.728;2023-05-29T08:23:00;102042.28;;;17.14;57.44
19086;BME280;9675;51.538;6.728;2023-05-29T08:25:27;102046.88;;;17.21;57.42
19086;BME280;9675;51.538;6.728;2023-05-29T08:27:54;102045.44;;;17.28;57.43
19086;BME280;9675;51.538;6.728;2023-05-29T08:30:21;102039.69;;;17.35;57.52
19086;BME280;9675;51.538;6.728;2023-05-29T08:32:48;102045.09;;;17.41;57.27
19086;BME280;9675;51.538;6.728;2023-05-29T08:35:17;102042.66;;;17.44;56.56
19086;BME280;9675;51.538;6.728;2023-05-29T08:37:44;102051.66;;;17.52;56.60
19086;BME280;9675;51.538;6.728;2023-05-29T08:40:12;102049.28;;;17.58;56.97
19086;BME280;9675;51.538;6.728;2023-05-29T08:42:47;102058.28;;;17.65;56.46
19086;BME280;9675;51.538;6.728;2023-05-29T08:45:22;102056.88;;;17.73;56.03
19086;BME280;9675;51.538;6.728;2023-05-29T08:47:53;102049.22;;;17.77;55.72
19086;BME280;9675;51.538;6.728;2023-05-29T08:50:22;102066.81;;;17.83;55.76
19086;BME280;9675;51.538;6.728;2023-05-29T08:52:50;102056.66;;;17.89;55.93
19086;BME280;9675;51.538;6.728;2023-05-29T08:55:17;102052.50;;;17.94;55.46
19086;BME280;9675;51.538;6.728;2023-05-29T08:57:45;102065.06;;;18.04;55.02
19086;BME280;9675;51.538;6.728;2023-05-29T09:00:13;102050.38;;;18.06;54.70
19086;BME280;9675;51.538;6.728;2023-05-29T09:02:44;102055.94;;;18.15;55.08
19086;BME280;9675;51.538;6.728;2023-05-29T09:05:11;102052.59;;;18.19;55.15
19086;BME280;9675;51.538;6.728;2023-05-29T09:07:40;102058.13;;;18.27;54.94
19086;BME280;9675;51.538;6.728;2023-05-29T09:10:09;102055.78;;;18.35;54.36
19086;BME280;9675;51.538;6.728;2023-05-29T09:12:37;102055.25;;;18.43;54.58
19086;BME280;9675;51.538;6.728;2023-05-29T09:15:17;102059.91;;;18.52;54.22
19086;BME280;9675;51.538;6.728;2023-05-29T09:17:49;102071.56;;;18.60;53.87
19086;BME280;9675;51.538;6.728;2023-05-29T09:20:17;102069.28;;;18.69;54.02
19086;BME280;9675;51.538;6.728;2023-05-29T09:22:53;102069.53;;;18.75;54.29
19086;BME280;9675;51.538;6.728;2023-05-29T09:25:22;102065.28;;;18.79;53.95
19086;BME280;9675;51.538;6.728;2023-05-29T09:27:57;102070.75;;;18.86;54.00
19086;BME280;9675;51.538;6.728;2023-05-29T09:30:34;102065.03;;;18.96;53.65
19086;BME280;9675;51.538;6.728;2023-05-29T09:33:03;102069.66;;;19.03;53.13
19086;BME280;9675;51.538;6.728;2023-05-29T09:35:35;102074.13;;;19.07;52.92
19086;BME280;9675;51.538;6.728;2023-05-29T09:38:05;102068.22;;;19.13;52.80
19086;BME280;9675;51.538;6.728;2023-05-29T09:40:35;102059.09;;;19.26;52.41
19086;BME280;9675;51.538;6.728;2023-05-29T09:43:04;102058.72;;;19.40;52.64
19086;BME280;9675;51.538;6.728;2023-05-29T09:45:36;102067.84;;;19.51;52.14
19086;BME280;9675;51.538;6.728;2023-05-29T09:48:06;102065.38;;;19.56;51.92
19086;BME280;9675;51.538;6.728;2023-05-29T09:50:34;102066.31;;;19.58;51.92
19086;BME280;9675;51.538;6.728;2023-05-29T09:53:01;102058.66;;;19.64;51.86
19086;BME280;9675;51.538;6.728;2023-05-29T09:55:31;102057.25;;;19.74;51.67
19086;BME280;9675;51.538;6.728;2023-05-29T09:58:00;102055.94;;;19.88;51.25
19086;BME280;9675;51.538;6.728;2023-05-29T10:00:28;102058.09;;;20.01;51.27
19086;BME280;9675;51.538;6.728;2023-05-29T10:02:56;102054.91;;;20.11;50.87
19086;BME280;9675;51.538;6.728;2023-05-29T10:05:24;102063.00;;;20.19;50.80
19086;BME280;9675;51.538;6.728;2023-05-29T10:07:54;102061.53;;;20.28;50.63
19086;BME280;9675;51.538;6.728;2023-05-29T10:10:25;102058.38;;;20.39;50.34
19086;BME280;9675;51.538;6.728;2023-05-29T10:12:56;102054.09;;;20.42;50.10
19086;BME280;9675;51.538;6.728;2023-05-29T10:15:25;102050.84;;;20.49;49.76
19086;BME280;9675;51.538;6.728;2023-05-29T10:18:02;102055.34;;;20.55;49.74
19086;BME280;9675;51.538;6.728;2023-05-29T10:20:31;102048.28;;;20.52;49.43
19086;BME280;9675;51.538;6.728;2023-05-29T10:23:01;102059.00;;;20.60;49.38
19086;BME280;9675;51.538;6.728;2023-05-29T10:25:32;102053.16;;;20.70;49.39
19086;BME280;9675;51.538;6.728;2023-05-29T10:28:01;102055.13;;;20.78;49.40
19086;BME280;9675;51.538;6.728;2023-05-29T10:30:37;102051.03;;;20.88;48.87
19086;BME280;9675;51.538;6.728;2023-05-29T10:33:47;102048.78;;;21.02;48.72
19086;BME280;9675;51.538;6.728;2023-05-29T10:36:19;102046.56;;;21.15;48.57
19086;BME280;9675;51.538;6.728;2023-05-29T10:38:51;102035.44;;;21.24;48.42
19086;BME280;9675;51.538;6.728;2023-05-29T10:41:31;102047.00;;;21.32;48.06
19086;BME280;9675;51.538;6.728;2023-05-29T10:44:02;102048.00;;;21.37;47.83
19086;BME280;9675;51.538;6.728;2023-05-29T10:47:04;102036.78;;;21.43;47.76
19086;BME280;9675;51.538;6.728;2023-05-29T10:49:32;102043.28;;;21.58;47.67
19086;BME280;9675;51.538;6.728;2023-05-29T10:52:00;102032.41;;;21.79;46.83
19086;BME280;9675;51.538;6.728;2023-05-29T10:54:41;102033.06;;;22.07;46.81
19086;BME280;9675;51.538;6.728;2023-05-29T10:57:17;102037.78;;;22.24;45.65
19086;BME280;9675;51.538;6.728;2023-05-29T10:59:46;102025.88;;;22.40;45.31
19086;BME280;9675;51.538;6.728;2023-05-29T11:02:18;102027.00;;;22.54;44.77
19086;BME280;9675;51.538;6.728;2023-05-29T11:05:06;102021.88;;;22.60;44.70
19086;BME280;9675;51.538;6.728;2023-05-29T11:07:33;102020.31;;;22.68;44.40
19086;BME280;9675;51.538;6.728;2023-05-29T11:10:13;102012.63;;;22.77;44.65
19086;BME280;9675;51.538;6.728;2023-05-29T11:12:59;102017.97;;;22.82;44.53
19086;BME280;9675;51.538;6.728;2023-05-29T11:15:27;102021.59;;;22.88;44.40
19086;BME280;9675;51.538;6.728;2023-05-29T11:17:54;102027.03;;;22.99;43.75
19086;BME280;9675;51.538;6.728;2023-05-29T11:20:35;102033.28;;;23.06;43.87
19086;BME280;9675;51.538;6.728;2023-05-29T11:23:05;102029.78;;;23.07;43.53
19086;BME280;9675;51.538;6.728;2023-05-29T11:25:36;102017.69;;;23.15;43.30
19086;BME280;9675;51.538;6.728;2023-05-29T11:28:04;102027.41;;;23.20;43.16
19086;BME280;9675;51.538;6.728;2023-05-29T11:30:55;102027.50;;;23.26;43.09
19086;BME280;9675;51.538;6.728;2023-05-29T11:33:27;102019.78;;;23.37;42.72
19086;BME280;9675;51.538;6.728;2023-05-29T11:35:58;102010.38;;;23.50;42.73
19086;BME280;9675;51.538;6.728;2023-05-29T11:38:27;102028.94;;;23.57;42.30
19086;BME280;9675;51.538;6.728;2023-05-29T11:40:55;102020.16;;;23.57;42.06
19086;BME280;9675;51.538;6.728;2023-05-29T11:43:25;102022.00;;;23.64;42.49
19086;BME280;9675;51.538;6.728;2023-05-29T11:45:53;102011.56;;;23.70;41.67
19086;BME280;9675;51.538;6.728;2023-05-29T11:48:21;102009.84;;;23.72;41.76
19086;BME280;9675;51.538;6.728;2023-05-29T11:50:49;102007.34;;;23.81;41.68
19086;BME280;9675;51.538;6.728;2023-05-29T11:53:16;102009.16;;;23.85;41.22
19086;BME280;9675;51.538;6.728;2023-05-29T11:55:43;102005.69;;;23.89;41.65
19086;BME280;9675;51.538;6.728;2023-05-29T11:58:10;102008.38;;;23.94;41.09
19086;BME280;9675;51.538;6.728;2023-05-29T12:00:39;101995.31;;;23.98;41.53
19086;BME280;9675;51.538;6.728;2023-05-29T12:03:09;101997.13;;;24.02;41.05
19086;BME280;9675;51.538;6.728;2023-05-29T12:05:45;101987.56;;;24.12;40.72
19086;BME280;9675;51.538;6.728;2023-05-29T12:08:14;102000.00;;;24.21;40.98
19086;BME280;9675;51.538;6.728;2023-05-29T12:10:47;102000.03;;;24.25;40.44
19086;BME280;9675;51.538;6.728;2023-05-29T12:13:15;102001.84;;;24.28;40.29
19086;BME280;9675;51.538;6.728;2023-05-29T12:15:43;102001.88;;;24.31;40.27
19086;BME280;9675;51.538;6.728;2023-05-29T12:18:12;102011.56;;;24.33;40.30
19086;BME280;9675;51.538;6.728;2023-05-29T12:20:50;102001.16;;;24.44;40.01
19086;BME280;9675;51.538;6.728;2023-05-29T12:23:20;102004.75;;;24.52;39.96
19086;BME280;9675;51.538;6.728;2023-05-29T12:25:48;102029.25;;;24.43;39.98
19086;BME280;9675;51.538;6.728;2023-05-29T12:28:16;102013.06;;;23.53;40.63
19086;BME280;9675;51.538;6.728;2023-05-29T12:30:45;102015.91;;;23.68;40.41
19086;BME280;9675;51.538;6.728;2023-05-29T12:33:35;102009.25;;;23.91;40.08
19086;BME280;9675;51.538;6.728;2023-05-29T12:36:56;101995.38;;;24.04;39.81
19086;BME280;9675;51.538;6.728;2023-05-29T12:39:36;102004.38;;;24.20;39.88
19086;BME280;9675;51.538;6.728;2023-05-29T12:42:05;102004.38;;;24.19;39.49
19086;BME280;9675;51.538;6.728;2023-05-29T12:47:24;102003.66;;;24.33;39.38
19086;BME280;9675;51.538;6.728;2023-05-29T12:49:52;102006.34;;;24.38;39.15
19086;BME280;9675;51.538;6.728;2023-05-29T12:52:21;102005.50;;;24.39;39.13
19086;BME280;9675;51.538;6.728;2023-05-29T12:54:50;102002.88;;;24.42;38.76
19086;BME280;9675;51.538;6.728;2023-05-29T12:57:17;102009.94;;;24.46;38.40
19086;BME280;9675;51.538;6.728;2023-05-29T12:59:44;102010.91;;;24.52;38.59
19086;BME280;9675;51.538;6.728;2023-05-29T13:02:11;102009.19;;;24.58;38.88
19086;BME280;9675;51.538;6.728;2023-05-29T13:04:38;102012.78;;;24.64;38.47
19086;BME280;9675;51.538;6.728;2023-05-29T13:07:07;102011.13;;;24.71;38.49
19086;BME280;9675;51.538;6.728;2023-05-29T13:09:34;102005.78;;;24.68;38.32
19086;BME280;9675;51.538;6.728;2023-05-29T13:12:01;102002.16;;;24.56;37.88
19086;BME280;9675;51.538;6.728;2023-05-29T13:14:28;102005.66;;;24.54;38.07